KJVL/JVL METAR and TAF weather

Enter ICAO airport designator
Station Type Date Time Source
KJVL METAR 2020/01/17 13:45 UTC NOAA

KJVL 171345Z 11005KT 10SM BKN200 M09/M12 A3071


Station Type Date Time Source
KJVL Decoded METAR 2020/01/17 13:45 UTC NOAA

Janesville / Rock County, WI, United States (KJVL) 42-37N 089-02W
Jan 17, 2020 - 08:45 AM EST / 2020.01.17 1345 UTC
Wind: from the ESE (110 degrees) at 6 MPH (5 KT):0
Visibility: 10 mile(s):0
Sky conditions: mostly cloudy
Temperature: 15 F (-9 C)
Windchill: 6 F (-14 C):1
Dew Point: 10 F (-12 C)
Relative Humidity: 78%
Pressure (altimeter): 30.71 in. Hg (1039 hPa)
ob: KJVL 171345Z 11005KT 10SM BKN200 M09/M12 A3071
cycle: 14

Station Type Date Time Source
KJVL TAF UTC NOAA

Error!

Example: see airport list